createdAt,value
2023-04-06T00:02:19.609Z,81.87
2023-04-06T00:04:46.139Z,81.69
2023-04-06T00:07:12.556Z,81.68
2023-04-06T00:09:38.909Z,81.78
2023-04-06T00:12:05.733Z,82.07
2023-04-06T00:14:32.165Z,81.67
2023-04-06T00:16:58.632Z,81.87
2023-04-06T00:19:25.132Z,81.60
2023-04-06T00:21:51.654Z,82.08
2023-04-06T00:24:18.115Z,81.97
2023-04-06T00:26:44.506Z,82.54
2023-04-06T00:29:11.242Z,84.00
2023-04-06T00:31:37.749Z,83.48
2023-04-06T00:34:04.444Z,83.50
2023-04-06T00:36:30.924Z,84.46
2023-04-06T00:38:57.319Z,85.79
2023-04-06T00:41:23.730Z,86.40
2023-04-06T00:43:50.154Z,86.25
2023-04-06T00:46:16.581Z,86.29
2023-04-06T00:48:42.988Z,85.94
2023-04-06T00:51:09.503Z,86.16
2023-04-06T00:53:36.116Z,85.73
2023-04-06T00:56:02.493Z,85.03
2023-04-06T00:58:29.071Z,84.87
2023-04-06T01:00:55.705Z,84.91
2023-04-06T01:03:22.128Z,84.58
2023-04-06T01:05:48.617Z,84.03
2023-04-06T01:08:15.524Z,83.72
2023-04-06T01:10:42.235Z,84.00
2023-04-06T01:13:09.386Z,84.62
2023-04-06T01:15:36.393Z,85.46
2023-04-06T01:18:03.310Z,86.16
2023-04-06T01:20:29.704Z,85.47
2023-04-06T01:22:56.352Z,85.41
2023-04-06T01:25:22.738Z,85.05
2023-04-06T01:27:49.127Z,85.65
2023-04-06T01:30:15.596Z,85.85
2023-04-06T01:32:42.061Z,86.78
2023-04-06T01:35:08.922Z,87.18
2023-04-06T01:37:35.318Z,86.92
2023-04-06T01:40:01.938Z,87.16
2023-04-06T01:42:28.979Z,87.11
2023-04-06T01:44:55.375Z,87.03
2023-04-06T01:47:21.849Z,87.17
2023-04-06T01:49:48.356Z,86.91
2023-04-06T01:52:15.033Z,87.27
2023-04-06T01:54:41.664Z,87.88
2023-04-06T01:57:08.100Z,88.32
2023-04-06T01:59:34.533Z,88.88
2023-04-06T02:02:00.995Z,89.67
2023-04-06T02:04:27.380Z,89.81
2023-04-06T02:06:53.759Z,90.00
2023-04-06T02:09:20.429Z,90.54
2023-04-06T02:11:46.798Z,90.86
2023-04-06T02:14:13.195Z,91.48
2023-04-06T02:16:39.618Z,92.15
2023-04-06T02:19:06.283Z,92.60
2023-04-06T02:21:32.860Z,93.72
2023-04-06T02:23:59.246Z,94.73
2023-04-06T02:26:25.897Z,95.76
2023-04-06T02:28:52.369Z,96.13
2023-04-06T02:31:18.798Z,96.97
2023-04-06T02:33:45.270Z,96.87
2023-04-06T02:36:11.658Z,96.67
2023-04-06T02:38:38.074Z,96.81
2023-04-06T02:41:04.513Z,97.66
2023-04-06T02:43:31.218Z,98.14
2023-04-06T02:45:57.646Z,98.24
2023-04-06T02:48:24.084Z,98.78
2023-04-06T02:50:50.749Z,98.95
2023-04-06T02:53:17.162Z,98.63
2023-04-06T02:55:43.645Z,99.10
2023-04-06T02:58:10.238Z,98.98
2023-04-06T03:00:37.652Z,98.85
2023-04-06T03:03:04.197Z,98.20
2023-04-06T03:05:31.585Z,97.86
2023-04-06T03:07:57.975Z,96.95
2023-04-06T03:10:24.376Z,97.34
2023-04-06T03:12:51.069Z,98.09
2023-04-06T03:15:17.461Z,99.00
2023-04-06T03:17:43.987Z,99.99
2023-04-06T03:20:10.769Z,100.00
2023-04-06T03:22:37.160Z,100.00
2023-04-06T03:25:03.926Z,100.00
2023-04-06T03:27:30.476Z,100.00
2023-04-06T03:29:56.847Z,100.00
2023-04-06T03:32:23.293Z,100.00
2023-04-06T03:34:49.723Z,100.00
2023-04-06T03:37:16.281Z,100.00
2023-04-06T03:39:42.658Z,100.00
2023-04-06T03:42:09.608Z,100.00
2023-04-06T03:44:36.093Z,100.00
2023-04-06T03:47:03.236Z,100.00
2023-04-06T03:49:29.606Z,100.00
2023-04-06T03:51:57.079Z,100.00
2023-04-06T03:54:23.462Z,100.00
2023-04-06T03:56:50.258Z,100.00
2023-04-06T03:59:17.025Z,100.00
2023-04-06T04:01:43.597Z,100.00
2023-04-06T04:04:11.111Z,100.00
2023-04-06T04:06:37.512Z,100.00
2023-04-06T04:09:04.022Z,100.00
2023-04-06T04:11:30.429Z,100.00
2023-04-06T04:13:56.835Z,100.00
2023-04-06T04:16:23.315Z,100.00
2023-04-06T04:18:49.904Z,100.00
2023-04-06T04:21:16.413Z,100.00
2023-04-06T04:23:42.858Z,100.00
2023-04-06T04:26:09.469Z,100.00
2023-04-06T04:28:36.048Z,100.00
2023-04-06T04:31:02.504Z,100.00
2023-04-06T04:33:28.881Z,100.00
2023-04-06T04:35:55.422Z,100.00
2023-04-06T04:38:21.880Z,100.00
2023-04-06T04:40:48.330Z,100.00
2023-04-06T04:43:14.791Z,100.00
2023-04-06T04:45:41.236Z,100.00
2023-04-06T04:48:08.863Z,100.00
2023-04-06T04:50:35.388Z,100.00
2023-04-06T04:53:01.872Z,100.00
2023-04-06T04:55:28.654Z,100.00
2023-04-06T04:57:55.218Z,100.00
2023-04-06T05:00:21.881Z,100.00
2023-04-06T05:02:48.481Z,100.00
2023-04-06T05:05:15.028Z,100.00
2023-04-06T05:07:41.392Z,100.00
2023-04-06T05:10:08.210Z,100.00
2023-04-06T05:12:34.736Z,100.00
2023-04-06T05:15:01.113Z,100.00
2023-04-06T05:17:27.632Z,100.00
2023-04-06T05:19:54.099Z,100.00
2023-04-06T05:22:20.876Z,100.00
2023-04-06T05:24:47.315Z,100.00
2023-04-06T05:27:13.779Z,100.00
2023-04-06T05:29:40.366Z,100.00
2023-04-06T05:32:07.154Z,100.00
2023-04-06T05:34:33.566Z,100.00
2023-04-06T05:36:59.934Z,100.00
2023-04-06T05:39:26.579Z,100.00
2023-04-06T05:41:52.966Z,100.00
2023-04-06T05:44:19.409Z,100.00
2023-04-06T05:46:45.947Z,100.00
2023-04-06T05:49:13.380Z,100.00
2023-04-06T05:51:39.742Z,100.00
2023-04-06T05:54:06.142Z,100.00
2023-04-06T05:56:32.804Z,100.00
2023-04-06T05:58:59.223Z,100.00
2023-04-06T06:01:25.702Z,100.00
2023-04-06T06:03:52.114Z,100.00
2023-04-06T06:06:18.510Z,100.00
2023-04-06T06:08:44.911Z,100.00
2023-04-06T06:11:11.449Z,100.00
2023-04-06T06:13:37.814Z,100.00
2023-04-06T06:16:06.157Z,100.00
2023-04-06T06:18:33.217Z,100.00
2023-04-06T06:20:59.730Z,100.00
2023-04-06T06:23:26.192Z,100.00
2023-04-06T06:25:52.691Z,100.00
2023-04-06T06:28:19.103Z,100.00
2023-04-06T06:30:45.485Z,100.00
2023-04-06T06:33:11.881Z,100.00
2023-04-06T06:35:38.299Z,100.00
2023-04-06T06:38:04.717Z,100.00
2023-04-06T06:40:31.185Z,100.00
2023-04-06T06:42:57.575Z,100.00
2023-04-06T06:45:26.281Z,100.00
2023-04-06T06:47:54.907Z,100.00
2023-04-06T06:50:22.027Z,100.00
2023-04-06T06:52:48.481Z,100.00
2023-04-06T06:55:15.002Z,100.00
2023-04-06T06:57:43.259Z,100.00
2023-04-06T07:00:12.909Z,100.00
2023-04-06T07:02:40.029Z,100.00
2023-04-06T07:05:23.823Z,100.00
2023-04-06T07:07:54.129Z,100.00
2023-04-06T07:10:20.884Z,100.00
2023-04-06T07:12:47.486Z,100.00
2023-04-06T07:15:14.088Z,100.00
2023-04-06T07:17:42.385Z,100.00
2023-04-06T07:20:09.350Z,98.89
2023-04-06T07:22:35.797Z,95.44
2023-04-06T07:25:02.195Z,87.58
2023-04-06T07:27:28.548Z,81.03
2023-04-06T07:29:54.938Z,77.00
2023-04-06T07:32:21.412Z,72.77
2023-04-06T07:34:47.938Z,69.71
2023-04-06T07:37:14.322Z,66.75
2023-04-06T07:39:41.412Z,64.22
2023-04-06T07:42:08.066Z,62.27
2023-04-06T07:44:34.467Z,61.40
2023-04-06T07:47:01.256Z,59.71
2023-04-06T07:49:27.680Z,58.54
2023-04-06T07:51:54.697Z,57.74
2023-04-06T07:54:21.193Z,57.76
2023-04-06T07:56:47.602Z,57.17
2023-04-06T07:59:14.622Z,56.55
2023-04-06T08:01:41.096Z,56.05
2023-04-06T08:04:07.892Z,55.51
2023-04-06T08:06:35.187Z,54.47
2023-04-06T08:09:01.550Z,53.94
2023-04-06T08:11:28.314Z,54.29
2023-04-06T08:13:56.569Z,52.52
2023-04-06T08:16:23.430Z,52.41
2023-04-06T08:18:49.858Z,51.99
2023-04-06T08:21:16.323Z,51.71
2023-04-06T08:23:42.899Z,51.10
2023-04-06T08:26:09.618Z,52.16
2023-04-06T08:28:36.308Z,52.10
2023-04-06T08:31:06.634Z,51.77
2023-04-06T08:33:37.007Z,51.39
2023-04-06T08:36:11.142Z,50.30
2023-04-06T08:38:37.588Z,50.40
2023-04-06T08:41:11.845Z,50.86
2023-04-06T08:43:47.622Z,50.16
2023-04-06T08:46:14.199Z,48.98
2023-04-06T08:48:41.783Z,49.50
2023-04-06T08:51:09.094Z,48.68
2023-04-06T08:53:35.809Z,48.40
2023-04-06T08:56:02.445Z,47.52
2023-04-06T08:58:37.543Z,46.76
2023-04-06T09:01:09.285Z,47.51
2023-04-06T09:03:39.456Z,47.03
2023-04-06T09:06:07.106Z,45.75
2023-04-06T09:08:36.801Z,46.25
2023-04-06T09:11:04.133Z,45.55
2023-04-06T09:13:30.941Z,45.31
2023-04-06T09:16:05.070Z,44.92
2023-04-06T09:18:32.206Z,44.83
2023-04-06T09:21:04.369Z,44.75
2023-04-06T09:23:30.739Z,44.15
2023-04-06T09:26:07.284Z,44.04
2023-04-06T09:28:54.152Z,43.44
2023-04-06T09:31:28.450Z,44.11
2023-04-06T09:33:55.617Z,43.70
2023-04-06T09:36:31.942Z,43.19
2023-04-06T09:39:00.472Z,43.08
2023-04-06T09:41:31.550Z,42.96
2023-04-06T09:44:08.762Z,42.65
2023-04-06T09:46:50.488Z,43.39
2023-04-06T09:49:22.848Z,42.99
2023-04-06T09:52:01.616Z,43.00
2023-04-06T09:54:30.402Z,42.46
2023-04-06T09:57:14.881Z,42.37
2023-04-06T10:00:10.644Z,41.74
2023-04-06T10:02:39.825Z,41.62
2023-04-06T10:05:10.629Z,42.50
2023-04-06T10:07:46.216Z,41.49
2023-04-06T10:10:23.409Z,41.17
2023-04-06T10:12:50.732Z,40.61
2023-04-06T10:15:18.839Z,40.66
2023-04-06T10:17:46.747Z,40.81
2023-04-06T10:20:28.892Z,40.42
2023-04-06T10:23:07.599Z,40.08
2023-04-06T10:25:34.386Z,39.65
2023-04-06T10:28:07.812Z,40.28
2023-04-06T10:30:35.653Z,40.81
2023-04-06T10:33:13.306Z,40.48
2023-04-06T10:35:40.017Z,40.32
2023-04-06T10:38:06.512Z,39.61
2023-04-06T10:40:33.172Z,39.94
2023-04-06T10:43:10.332Z,39.95
2023-04-06T10:45:36.929Z,39.40
2023-04-06T10:48:14.809Z,39.81
2023-04-06T10:50:41.723Z,39.81
2023-04-06T10:53:08.122Z,39.74
2023-04-06T10:55:35.535Z,40.18
2023-04-06T10:58:01.938Z,40.65
2023-04-06T11:00:36.263Z,40.29
2023-04-06T11:03:09.688Z,40.68
2023-04-06T11:05:36.406Z,39.88
2023-04-06T11:08:02.794Z,39.15
2023-04-06T11:10:30.859Z,39.32
2023-04-06T11:12:57.730Z,39.34
2023-04-06T11:15:24.234Z,39.66
2023-04-06T11:17:50.983Z,38.94
2023-04-06T11:20:18.412Z,37.82
2023-04-06T11:22:53.460Z,37.52
2023-04-06T11:25:20.240Z,36.70
2023-04-06T11:27:47.909Z,36.22
2023-04-06T11:30:15.458Z,35.48
2023-04-06T11:32:43.533Z,37.64
2023-04-06T11:35:21.738Z,39.23
2023-04-06T11:37:49.891Z,39.86
2023-04-06T11:40:16.801Z,39.54
2023-04-06T11:42:43.194Z,38.99
2023-04-06T11:45:10.070Z,38.42
2023-04-06T11:47:38.736Z,38.33
2023-04-06T11:50:09.785Z,38.17
2023-04-06T11:52:36.407Z,38.88
2023-04-06T11:55:13.918Z,38.42
2023-04-06T11:57:40.745Z,37.78
2023-04-06T12:00:09.317Z,38.16
2023-04-06T12:02:37.109Z,37.80
2023-04-06T12:05:04.402Z,37.62
2023-04-06T12:07:31.339Z,37.61
2023-04-06T12:09:57.809Z,36.96
2023-04-06T12:12:24.198Z,37.73
2023-04-06T12:14:50.855Z,36.98
2023-04-06T12:17:17.316Z,36.85
2023-04-06T12:19:43.702Z,37.87
2023-04-06T12:22:10.247Z,37.75
2023-04-06T12:24:36.631Z,38.40
2023-04-06T12:27:09.896Z,37.66
2023-04-06T12:29:36.819Z,37.02
2023-04-06T12:32:03.209Z,38.28
2023-04-06T12:34:29.722Z,38.15
2023-04-06T12:36:57.023Z,36.99
2023-04-06T12:39:23.656Z,36.79
2023-04-06T12:41:50.299Z,36.28
2023-04-06T12:44:16.682Z,36.48
2023-04-06T12:46:44.178Z,36.56
2023-04-06T12:49:12.895Z,36.74
2023-04-06T12:51:39.298Z,37.50
2023-04-06T12:54:06.824Z,37.93
2023-04-06T12:56:33.584Z,38.66
2023-04-06T12:59:00.018Z,40.21
2023-04-06T13:01:28.926Z,40.02
2023-04-06T13:03:56.392Z,39.18
2023-04-06T13:06:22.766Z,39.92
2023-04-06T13:08:51.037Z,39.71
2023-04-06T13:11:17.465Z,39.15
2023-04-06T13:13:43.842Z,40.06
2023-04-06T13:16:10.448Z,39.81
2023-04-06T13:18:39.340Z,39.45
2023-04-06T13:21:07.167Z,39.75
2023-04-06T13:23:33.916Z,39.63
2023-04-06T13:26:02.254Z,39.14
2023-04-06T13:28:28.759Z,39.56
2023-04-06T13:30:55.856Z,41.11
2023-04-06T13:33:22.688Z,41.62
2023-04-06T13:35:49.099Z,41.71
2023-04-06T13:38:16.027Z,41.97
2023-04-06T13:40:42.758Z,41.80
2023-04-06T13:43:09.233Z,41.35
2023-04-06T13:45:35.776Z,42.03
2023-04-06T13:48:02.254Z,42.31
2023-04-06T13:50:28.977Z,42.30
2023-04-06T13:52:55.521Z,42.26
2023-04-06T13:55:22.250Z,42.15
2023-04-06T13:57:48.625Z,42.95
2023-04-06T14:00:15.752Z,44.01
2023-04-06T14:02:42.705Z,45.66
2023-04-06T14:05:09.773Z,44.74
2023-04-06T14:07:36.206Z,44.36
2023-04-06T14:10:03.341Z,44.20
2023-04-06T14:12:29.903Z,43.94
2023-04-06T14:14:56.666Z,44.51
2023-04-06T14:17:23.058Z,44.83
2023-04-06T14:19:49.958Z,45.20
2023-04-06T14:22:16.359Z,46.03
2023-04-06T14:24:42.770Z,45.70
2023-04-06T14:27:09.284Z,45.89
2023-04-06T14:29:36.545Z,45.59
2023-04-06T14:32:03.583Z,45.63
2023-04-06T14:34:30.211Z,45.25
2023-04-06T14:36:56.664Z,44.72
2023-04-06T14:39:23.085Z,44.49
2023-04-06T14:41:50.971Z,43.95
2023-04-06T14:44:17.611Z,44.99
2023-04-06T14:46:44.244Z,45.31
2023-04-06T14:49:10.842Z,45.15
2023-04-06T14:51:37.289Z,45.41
2023-04-06T14:54:04.220Z,45.01
2023-04-06T14:56:32.048Z,45.51
2023-04-06T14:58:59.721Z,47.05
2023-04-06T15:01:26.192Z,46.86
2023-04-06T15:03:52.834Z,47.05
2023-04-06T15:06:21.640Z,47.32
2023-04-06T15:08:49.510Z,47.96
2023-04-06T15:11:16.067Z,48.98
2023-04-06T15:13:42.719Z,50.35
2023-04-06T15:16:09.419Z,50.26
2023-04-06T15:18:36.345Z,50.02
2023-04-06T15:21:03.158Z,50.14
2023-04-06T15:23:33.692Z,49.71
2023-04-06T15:26:00.300Z,50.25
2023-04-06T15:28:26.881Z,50.83
2023-04-06T15:30:54.878Z,50.92
2023-04-06T15:33:22.771Z,51.25
2023-04-06T15:35:49.220Z,50.97
2023-04-06T15:38:15.800Z,51.68
2023-04-06T15:40:47.271Z,52.62
2023-04-06T15:43:14.041Z,53.56
2023-04-06T15:45:41.606Z,53.58
2023-04-06T15:48:08.358Z,54.83
2023-04-06T15:50:35.425Z,55.57
2023-04-06T15:53:02.103Z,55.82
2023-04-06T15:55:28.535Z,56.13
2023-04-06T15:57:54.908Z,56.04
2023-04-06T16:00:21.864Z,56.44
2023-04-06T16:02:48.546Z,56.55
2023-04-06T16:05:15.138Z,56.91
2023-04-06T16:07:41.813Z,57.25
2023-04-06T16:10:08.868Z,58.90
2023-04-06T16:12:35.275Z,59.30
2023-04-06T16:15:01.758Z,60.03
2023-04-06T16:17:28.214Z,60.20
2023-04-06T16:19:54.983Z,61.31
2023-04-06T16:22:21.977Z,61.65
2023-04-06T16:24:48.363Z,62.60
2023-04-06T16:27:14.768Z,63.54
2023-04-06T16:29:41.666Z,64.16
2023-04-06T16:32:10.924Z,64.58
2023-04-06T16:34:37.623Z,65.70
2023-04-06T16:37:04.076Z,67.79
2023-04-06T16:39:30.580Z,68.82
2023-04-06T16:41:57.448Z,71.15
2023-04-06T16:44:23.977Z,72.18
2023-04-06T16:46:51.050Z,74.20
2023-04-06T16:49:19.357Z,75.39
2023-04-06T16:51:45.935Z,75.53
2023-04-06T16:54:12.383Z,75.41
2023-04-06T16:56:38.770Z,76.81
2023-04-06T16:59:08.023Z,77.55
2023-04-06T17:01:34.516Z,78.34
2023-04-06T17:04:01.790Z,77.60
2023-04-06T17:06:28.498Z,79.01
2023-04-06T17:08:54.952Z,80.36
2023-04-06T17:11:25.668Z,80.70
2023-04-06T17:13:55.340Z,81.52
2023-04-06T17:16:21.812Z,81.74
2023-04-06T17:18:48.228Z,82.51
2023-04-06T17:21:16.734Z,83.20
2023-04-06T17:23:43.777Z,83.52
2023-04-06T17:26:10.304Z,85.94
2023-04-06T17:28:36.703Z,85.61
2023-04-06T17:31:07.963Z,87.92
2023-04-06T17:33:35.215Z,90.30
2023-04-06T17:36:01.827Z,90.76
2023-04-06T17:38:28.309Z,90.78
2023-04-06T17:40:54.835Z,93.58
2023-04-06T17:43:21.330Z,94.67
2023-04-06T17:45:51.877Z,96.51
2023-04-06T17:48:18.320Z,98.14
2023-04-06T17:50:45.369Z,99.72
2023-04-06T17:53:12.076Z,100.00
2023-04-06T17:55:38.463Z,100.00
2023-04-06T17:58:05.297Z,100.00
2023-04-06T18:00:31.699Z,100.00
2023-04-06T18:02:58.128Z,100.00
2023-04-06T18:05:25.932Z,100.00
2023-04-06T18:07:55.473Z,100.00
2023-04-06T18:10:22.651Z,100.00
2023-04-06T18:12:49.166Z,100.00
2023-04-06T18:15:16.833Z,100.00
2023-04-06T18:17:44.626Z,100.00
2023-04-06T18:20:13.172Z,100.00
2023-04-06T18:22:40.529Z,100.00
2023-04-06T18:25:07.288Z,100.00
2023-04-06T18:27:33.821Z,100.00
2023-04-06T18:30:01.078Z,100.00
2023-04-06T18:32:30.587Z,100.00
2023-04-06T18:34:57.758Z,100.00
2023-04-06T18:37:25.381Z,100.00
2023-04-06T18:39:53.243Z,100.00
2023-04-06T18:42:19.630Z,100.00
2023-04-06T18:44:46.892Z,100.00
2023-04-06T18:47:13.413Z,100.00
2023-04-06T18:49:39.922Z,100.00
2023-04-06T18:52:06.371Z,100.00
2023-04-06T18:54:32.843Z,100.00
2023-04-06T18:56:59.238Z,100.00
2023-04-06T18:59:30.029Z,100.00
2023-04-06T19:01:56.600Z,100.00
2023-04-06T19:04:23.389Z,100.00
2023-04-06T19:06:49.954Z,100.00
2023-04-06T19:09:16.421Z,100.00
2023-04-06T19:11:42.784Z,100.00
2023-04-06T19:14:09.183Z,100.00
2023-04-06T19:16:40.857Z,100.00
2023-04-06T19:19:07.371Z,100.00
2023-04-06T19:21:33.750Z,100.00
2023-04-06T19:24:00.339Z,100.00
2023-04-06T19:26:32.312Z,100.00
2023-04-06T19:28:58.728Z,100.00
2023-04-06T19:31:26.894Z,100.00
2023-04-06T19:33:53.394Z,100.00
2023-04-06T19:36:19.851Z,100.00
2023-04-06T19:38:46.268Z,100.00
2023-04-06T19:41:12.915Z,100.00
2023-04-06T19:43:39.419Z,100.00
2023-04-06T19:46:05.980Z,100.00
2023-04-06T19:48:33.849Z,100.00
2023-04-06T19:51:00.331Z,100.00
2023-04-06T19:53:27.206Z,100.00
2023-04-06T19:55:53.706Z,100.00
2023-04-06T19:58:21.491Z,100.00
2023-04-06T20:00:47.892Z,100.00
2023-04-06T20:03:14.623Z,100.00
2023-04-06T20:05:41.474Z,100.00
2023-04-06T20:08:08.011Z,100.00
2023-04-06T20:10:34.847Z,100.00
2023-04-06T20:13:01.481Z,100.00
2023-04-06T20:15:28.075Z,100.00
2023-04-06T20:17:55.329Z,100.00
2023-04-06T20:20:21.814Z,100.00
2023-04-06T20:22:49.989Z,100.00
2023-04-06T20:25:17.601Z,100.00
2023-04-06T20:27:45.249Z,100.00
2023-04-06T20:30:14.145Z,100.00
2023-04-06T20:32:40.960Z,100.00
2023-04-06T20:35:07.664Z,100.00
2023-04-06T20:37:35.246Z,100.00
2023-04-06T20:40:01.694Z,100.00
2023-04-06T20:42:28.103Z,100.00
2023-04-06T20:44:56.844Z,100.00
2023-04-06T20:47:23.379Z,100.00
2023-04-06T20:49:50.073Z,100.00
2023-04-06T20:52:16.446Z,100.00
2023-04-06T20:54:42.831Z,100.00
2023-04-06T20:57:09.212Z,100.00
2023-04-06T20:59:35.770Z,100.00
2023-04-06T21:02:02.346Z,100.00
2023-04-06T21:04:28.948Z,100.00
2023-04-06T21:06:55.471Z,100.00
2023-04-06T21:09:21.897Z,100.00
2023-04-06T21:11:48.334Z,100.00
2023-04-06T21:14:14.742Z,100.00
2023-04-06T21:16:41.854Z,100.00
2023-04-06T21:19:08.312Z,100.00
2023-04-06T21:21:34.752Z,100.00
2023-04-06T21:24:01.716Z,100.00
2023-04-06T21:26:28.187Z,100.00
2023-04-06T21:28:54.704Z,100.00
2023-04-06T21:31:22.148Z,100.00
2023-04-06T21:33:48.916Z,100.00
2023-04-06T21:36:15.344Z,100.00
2023-04-06T21:38:41.763Z,100.00
2023-04-06T21:41:08.155Z,100.00
2023-04-06T21:43:35.557Z,100.00
2023-04-06T21:46:02.299Z,100.00
2023-04-06T21:48:28.764Z,100.00
2023-04-06T21:50:55.133Z,100.00
2023-04-06T21:53:21.548Z,100.00
2023-04-06T21:55:49.103Z,100.00
2023-04-06T21:58:15.711Z,100.00
2023-04-06T22:00:42.131Z,100.00
2023-04-06T22:03:08.620Z,100.00
2023-04-06T22:05:36.362Z,100.00
2023-04-06T22:08:03.188Z,100.00
2023-04-06T22:10:29.689Z,100.00
2023-04-06T22:12:56.205Z,100.00
2023-04-06T22:15:22.783Z,100.00
2023-04-06T22:17:49.231Z,100.00
2023-04-06T22:20:15.707Z,100.00
2023-04-06T22:22:42.155Z,100.00
2023-04-06T22:25:08.979Z,100.00
2023-04-06T22:27:35.558Z,100.00
2023-04-06T22:30:02.646Z,100.00
2023-04-06T22:32:29.163Z,100.00
2023-04-06T22:34:55.732Z,100.00
2023-04-06T22:37:22.116Z,100.00
2023-04-06T22:39:48.495Z,100.00
2023-04-06T22:42:14.895Z,100.00
2023-04-06T22:44:41.310Z,100.00
2023-04-06T22:47:07.864Z,100.00
2023-04-06T22:49:34.276Z,100.00
2023-04-06T22:52:00.749Z,100.00
2023-04-06T22:54:27.133Z,100.00
2023-04-06T22:56:53.764Z,100.00
2023-04-06T22:59:20.573Z,100.00
2023-04-06T23:01:47.031Z,100.00
2023-04-06T23:04:13.577Z,100.00
2023-04-06T23:06:39.975Z,100.00
2023-04-06T23:09:06.375Z,100.00
2023-04-06T23:11:32.763Z,100.00
2023-04-06T23:13:59.145Z,100.00
2023-04-06T23:16:25.597Z,100.00
2023-04-06T23:18:51.984Z,100.00
2023-04-06T23:21:18.415Z,100.00
2023-04-06T23:23:44.800Z,100.00
2023-04-06T23:26:11.828Z,100.00
2023-04-06T23:28:38.243Z,100.00
2023-04-06T23:31:04.700Z,100.00
2023-04-06T23:33:31.336Z,100.00
2023-04-06T23:35:57.755Z,100.00
2023-04-06T23:38:24.225Z,100.00
2023-04-06T23:40:50.868Z,100.00
2023-04-06T23:43:17.305Z,100.00
2023-04-06T23:45:43.696Z,100.00
2023-04-06T23:48:10.372Z,100.00
2023-04-06T23:50:37.259Z,100.00
2023-04-06T23:53:04.369Z,100.00
2023-04-06T23:55:31.198Z,100.00
2023-04-06T23:57:57.679Z,100.00
